Time;durP1;ratioP1;P1;durP2;ratioP2;P2;SDS_P1;SDS_P2;PMS_P1;PMS_P2;Temp;Humidity;BMP_temperature;BMP_pressure;BME280_temperature;BME280_humidity;BME280_pressure;Samples;Min_cycle;Max_cycle;Signal;HPM_P1;HPM_P2
2022/09/26 00:01:14;;;;;;;0.20;0.20;;;11.30;99.90;;;;;;5044754;28;20178;-61
2022/09/26 00:03:42;;;;;;;0.00;0.00;;;11.20;99.90;;;;;;5045192;28;20224;-62
2022/09/26 00:06:08;;;;;;;0.00;0.00;;;11.20;99.90;;;;;;5036600;28;20664;-62
2022/09/26 00:08:36;;;;;;;0.00;0.00;;;11.20;99.90;;;;;;5042001;28;20186;-62
2022/09/26 00:11:05;;;;;;;0.13;0.13;;;11.20;99.90;;;;;;5043108;28;20194;-62
2022/09/26 00:13:33;;;;;;;0.00;0.00;;;11.10;99.90;;;;;;5051756;28;20178;-62
2022/09/26 00:15:59;;;;;;;0.10;0.10;;;11.10;99.90;;;;;;5046913;28;20179;-61
2022/09/26 00:18:25;;;;;;;0.30;0.30;;;11.00;99.90;;;;;;5052316;28;20252;-62
2022/09/26 00:20:51;;;;;;;0.20;0.20;;;11.00;99.90;;;;;;5049449;28;20645;-62
2022/09/26 00:23:17;;;;;;;0.08;0.08;;;11.00;99.90;;;;;;5043854;28;20223;-62
2022/09/26 00:25:50;;;;;;;0.22;0.22;;;11.00;99.90;;;;;;5042693;28;20646;-62
2022/09/26 00:28:17;;;;;;;0.10;0.10;;;11.00;99.90;;;;;;5052549;28;20209;-62
2022/09/26 00:30:43;;;;;;;0.00;0.00;;;11.00;99.90;;;;;;5050577;28;20210;-62
2022/09/26 00:33:10;;;;;;;0.00;0.00;;;11.00;99.90;;;;;;5038324;28;20632;-62
2022/09/26 00:35:35;;;;;;;0.08;0.08;;;11.00;99.90;;;;;;5042663;28;20193;-62
2022/09/26 00:38:01;;;;;;;0.10;0.10;;;11.00;99.90;;;;;;5045789;28;20170;-62
2022/09/26 00:40:27;;;;;;;0.03;0.03;;;11.00;99.90;;;;;;5048480;28;20189;-62
2022/09/26 00:42:53;;;;;;;0.73;0.20;;;11.00;99.90;;;;;;5039628;28;20208;-62
2022/09/26 00:45:19;;;;;;;0.00;0.00;;;11.00;99.90;;;;;;5035993;28;20185;-62
2022/09/26 00:47:58;;;;;;;0.00;0.00;;;11.00;99.90;;;;;;5035229;28;20238;-62
2022/09/26 00:50:29;;;;;;;0.20;0.20;;;11.00;99.90;;;;;;5035980;28;20249;-62
2022/09/26 00:53:07;;;;;;;0.08;0.08;;;11.00;99.90;;;;;;5040667;28;20190;-62
2022/09/26 00:55:37;;;;;;;0.08;0.08;;;11.00;99.90;;;;;;5042831;28;20190;-62
2022/09/26 00:58:08;;;;;;;0.00;0.00;;;11.00;99.90;;;;;;5035158;28;20175;-62
2022/09/26 01:00:34;;;;;;;0.00;0.00;;;11.10;99.90;;;;;;5041032;28;20269;-62
2022/09/26 01:03:00;;;;;;;0.13;0.13;;;11.00;99.90;;;;;;5049104;28;20304;-62
2022/09/26 01:05:26;;;;;;;0.22;0.22;;;11.00;99.90;;;;;;5053544;28;20188;-62
2022/09/26 01:07:55;;;;;;;0.05;0.05;;;11.00;99.90;;;;;;5039053;28;20649;-62
2022/09/26 01:10:22;;;;;;;0.10;0.10;;;11.00;99.90;;;;;;5036305;28;20259;-62
2022/09/26 01:12:47;;;;;;;0.00;0.00;;;11.00;99.90;;;;;;5043315;28;20516;-62
2022/09/26 01:15:13;;;;;;;0.15;0.15;;;11.00;99.90;;;;;;5041273;28;20218;-62
2022/09/26 01:17:41;;;;;;;0.20;0.20;;;11.00;99.90;;;;;;5037431;28;20177;-62
2022/09/26 01:20:10;;;;;;;0.03;0.03;;;11.00;99.90;;;;;;5053215;28;20240;-62
2022/09/26 01:22:44;;;;;;;0.05;0.05;;;11.00;99.90;;;;;;5039554;28;20181;-62
2022/09/26 01:25:47;;;;;;;0.15;0.15;;;11.00;99.90;;;;;;5042299;28;20277;-62
2022/09/26 01:28:43;;;;;;;0.00;0.00;;;11.00;99.90;;;;;;5034480;28;20609;-62
2022/09/26 01:31:14;;;;;;;0.00;0.00;;;11.00;99.90;;;;;;5041287;28;20201;-62
2022/09/26 01:33:51;;;;;;;0.30;0.17;;;10.90;99.90;;;;;;5034084;28;20186;-62
2022/09/26 01:36:21;;;;;;;0.05;0.05;;;10.90;99.90;;;;;;5035040;28;20186;-62
2022/09/26 01:39:24;;;;;;;0.52;0.38;;;11.00;99.90;;;;;;5032552;28;20213;-62
2022/09/26 01:42:09;;;;;;;0.00;0.00;;;11.00;99.90;;;;;;5036610;28;20181;-62
2022/09/26 01:44:58;;;;;;;0.25;0.22;;;11.00;99.90;;;;;;5042891;28;20216;-62
2022/09/26 01:47:36;;;;;;;0.28;0.28;;;11.00;99.90;;;;;;5045408;28;20193;-62
2022/09/26 01:50:05;;;;;;;0.00;0.00;;;11.10;99.90;;;;;;5032294;28;20224;-61
2022/09/26 01:52:47;;;;;;;0.00;0.00;;;11.10;99.90;;;;;;5051316;28;20231;-61
2022/09/26 01:55:34;;;;;;;0.00;0.00;;;11.10;99.90;;;;;;5034429;28;20194;-62
2022/09/26 01:58:12;;;;;;;0.03;0.03;;;11.10;99.90;;;;;;5034056;28;20185;-62
2022/09/26 02:00:41;;;;;;;0.00;0.00;;;11.00;99.90;;;;;;5038640;28;20169;-62
2022/09/26 02:03:13;;;;;;;0.15;0.15;;;11.10;99.90;;;;;;5050838;28;20225;-62
2022/09/26 02:05:43;;;;;;;0.00;0.00;;;11.10;99.90;;;;;;5052577;28;20180;-62
2022/09/26 02:08:32;;;;;;;0.00;0.00;;;11.10;99.90;;;;;;5051740;28;20223;-62
2022/09/26 02:11:05;;;;;;;0.00;0.00;;;11.10;99.90;;;;;;5033558;28;20198;-62
2022/09/26 02:13:35;;;;;;;0.13;0.13;;;11.10;99.90;;;;;;5043157;28;20178;-62
2022/09/26 02:16:11;;;;;;;0.00;0.00;;;11.10;99.90;;;;;;5018639;28;20179;-62
2022/09/26 02:18:50;;;;;;;0.05;0.05;;;11.10;99.90;;;;;;5044910;28;20535;-62
2022/09/26 02:21:20;;;;;;;0.10;0.10;;;11.10;99.90;;;;;;5048790;28;20213;-62
2022/09/26 02:23:51;;;;;;;0.00;0.00;;;11.00;99.90;;;;;;5033453;28;20712;-62
2022/09/26 02:26:17;;;;;;;0.00;0.00;;;11.00;99.90;;;;;;5032220;28;20672;-62
2022/09/26 02:28:43;;;;;;;0.00;0.00;;;11.00;99.90;;;;;;5046677;28;20536;-62
2022/09/26 02:31:12;;;;;;;0.20;0.10;;;11.00;99.90;;;;;;5048082;28;20653;-62
2022/09/26 02:33:38;;;;;;;0.00;0.00;;;11.00;99.90;;;;;;5044138;28;20181;-62
2022/09/26 02:36:09;;;;;;;0.00;0.00;;;11.00;99.90;;;;;;5037814;28;20182;-62
2022/09/26 02:38:34;;;;;;;0.28;0.28;;;11.00;99.90;;;;;;5037205;28;20181;-62
2022/09/26 02:41:32;;;;;;;0.00;0.00;;;11.00;99.90;;;;;;5038163;28;20205;-62
2022/09/26 02:44:31;;;;;;;0.00;0.00;;;11.00;99.90;;;;;;5033337;28;20190;-62
2022/09/26 02:47:08;;;;;;;0.00;0.00;;;11.00;99.90;;;;;;5044353;28;20189;-62
2022/09/26 02:49:59;;;;;;;0.10;0.10;;;11.10;99.90;;;;;;5041955;28;20300;-62
2022/09/26 02:52:46;;;;;;;0.00;0.00;;;11.00;99.90;;;;;;5032301;28;20243;-62
2022/09/26 02:55:17;;;;;;;0.55;0.55;;;11.00;99.90;;;;;;5051525;28;20192;-62
2022/09/26 02:58:08;;;;;;;0.00;0.00;;;11.00;99.90;;;;;;5040137;28;20227;-62
2022/09/26 03:00:54;;;;;;;0.00;0.00;;;11.00;99.90;;;;;;5043551;28;20179;-62
2022/09/26 03:03:38;;;;;;;0.00;0.00;;;11.00;99.90;;;;;;5032750;28;20697;-62
2022/09/26 03:06:07;;;;;;;0.00;0.00;;;10.90;99.90;;;;;;5032721;28;20204;-62
2022/09/26 03:08:38;;;;;;;0.05;0.05;;;10.90;99.90;;;;;;5041000;28;20247;-62
2022/09/26 03:11:07;;;;;;;0.03;0.03;;;10.90;99.90;;;;;;5032515;28;20182;-62
2022/09/26 03:13:36;;;;;;;0.00;0.00;;;10.90;99.90;;;;;;5047974;28;20184;-62
2022/09/26 03:16:02;;;;;;;0.20;0.20;;;10.90;99.90;;;;;;5040307;28;20194;-62
2022/09/26 03:18:35;;;;;;;0.00;0.00;;;10.90;99.90;;;;;;5032859;28;20178;-62
2022/09/26 03:21:01;;;;;;;0.00;0.00;;;10.90;99.90;;;;;;5051944;28;20640;-62
2022/09/26 03:23:27;;;;;;;0.00;0.00;;;10.80;99.90;;;;;;5040260;28;20248;-62
2022/09/26 03:26:00;;;;;;;0.15;0.08;;;10.80;99.90;;;;;;5033755;28;20182;-62
2022/09/26 03:28:26;;;;;;;0.38;0.38;;;10.80;99.90;;;;;;5051733;28;20178;-62
2022/09/26 03:30:52;;;;;;;0.15;0.15;;;10.70;99.90;;;;;;5037067;28;20217;-62
2022/09/26 03:33:17;;;;;;;0.00;0.00;;;10.70;99.90;;;;;;5032874;28;20657;-61
2022/09/26 03:35:42;;;;;;;0.13;0.13;;;10.70;99.90;;;;;;5031868;28;20257;-62
2022/09/26 03:38:08;;;;;;;0.25;0.25;;;10.70;99.90;;;;;;5043682;28;20602;-62
2022/09/26 03:40:34;;;;;;;0.22;0.20;;;10.60;99.90;;;;;;5031897;28;20189;-61
2022/09/26 03:43:00;;;;;;;0.00;0.00;;;10.60;99.90;;;;;;5031672;28;20182;-63
2022/09/26 03:45:26;;;;;;;0.00;0.00;;;10.50;99.90;;;;;;5035961;28;20273;-66
2022/09/26 03:47:56;;;;;;;0.00;0.00;;;10.50;99.90;;;;;;5047508;28;20177;-64
2022/09/26 03:50:22;;;;;;;0.00;0.00;;;10.40;99.90;;;;;;5031309;28;20312;-67
2022/09/26 03:52:48;;;;;;;0.00;0.00;;;10.40;99.90;;;;;;5044369;28;20814;-67
2022/09/26 03:55:13;;;;;;;0.00;0.00;;;10.40;99.90;;;;;;5042879;28;20221;-63
2022/09/26 03:57:39;;;;;;;0.00;0.00;;;10.30;99.90;;;;;;5032350;28;20186;-64
2022/09/26 04:00:06;;;;;;;0.00;0.00;;;10.30;99.90;;;;;;5038701;28;20182;-63
2022/09/26 04:02:33;;;;;;;0.00;0.00;;;10.30;99.90;;;;;;5051262;28;20843;-65
2022/09/26 04:04:58;;;;;;;0.00;0.00;;;10.20;99.90;;;;;;5042374;28;20193;-64
2022/09/26 04:07:24;;;;;;;0.43;0.20;;;10.10;99.90;;;;;;5031401;28;20789;-64
2022/09/26 04:09:50;;;;;;;0.43;0.20;;;10.10;99.90;;;;;;5032580;28;20634;-64
2022/09/26 04:12:16;;;;;;;0.00;0.00;;;10.00;99.90;;;;;;5045548;28;20182;-65
2022/09/26 04:14:42;;;;;;;0.00;0.00;;;10.00;99.90;;;;;;5042152;28;20177;-65
2022/09/26 04:17:08;;;;;;;0.10;0.10;;;10.00;99.90;;;;;;5047149;28;20174;-64
2022/09/26 04:19:34;;;;;;;0.03;0.00;;;10.00;99.90;;;;;;5037827;28;20170;-64
2022/09/26 04:21:59;;;;;;;0.00;0.00;;;10.00;99.90;;;;;;5034955;28;20220;-64
2022/09/26 04:24:25;;;;;;;0.05;0.05;;;10.00;99.90;;;;;;5035210;28;20246;-63
2022/09/26 04:26:50;;;;;;;0.45;0.45;;;10.10;99.90;;;;;;5034973;28;20174;-64
2022/09/26 04:29:16;;;;;;;0.20;0.20;;;10.10;99.90;;;;;;5034731;28;20202;-64
2022/09/26 04:31:42;;;;;;;0.03;0.03;;;10.00;99.90;;;;;;5034846;28;20185;-63
2022/09/26 04:34:08;;;;;;;0.00;0.00;;;9.90;99.90;;;;;;5034761;28;20616;-64
2022/09/26 04:36:34;;;;;;;0.10;0.10;;;9.90;99.90;;;;;;5034763;28;20535;-63
2022/09/26 04:38:59;;;;;;;0.00;0.00;;;9.90;99.90;;;;;;5034633;28;20186;-64
2022/09/26 04:41:27;;;;;;;0.00;0.00;;;9.80;99.90;;;;;;5034595;28;20182;-64
2022/09/26 04:43:53;;;;;;;0.20;0.20;;;9.80;99.90;;;;;;5034680;28;20190;-64
2022/09/26 04:46:22;;;;;;;0.10;0.10;;;9.80;99.90;;;;;;5034423;28;20233;-64
2022/09/26 04:48:49;;;;;;;0.00;0.00;;;9.80;99.90;;;;;;5034533;28;20205;-64
2022/09/26 04:51:15;;;;;;;0.00;0.00;;;9.80;99.90;;;;;;5034403;28;20185;-63
2022/09/26 04:53:42;;;;;;;0.20;0.13;;;9.80;99.90;;;;;;5034440;28;20178;-64
2022/09/26 04:56:11;;;;;;;0.00;0.00;;;9.80;99.90;;;;;;5034367;28;20213;-64
2022/09/26 04:58:37;;;;;;;0.25;0.25;;;9.80;99.90;;;;;;5034162;28;20174;-63
2022/09/26 05:01:12;;;;;;;0.00;0.00;;;9.80;99.90;;;;;;5038711;28;20272;-63
2022/09/26 05:03:38;;;;;;;0.00;0.00;;;9.80;99.90;;;;;;5036948;28;20264;-64
2022/09/26 05:06:07;;;;;;;0.00;0.00;;;9.80;99.90;;;;;;5046315;28;20210;-64
2022/09/26 05:08:34;;;;;;;0.10;0.10;;;9.80;99.90;;;;;;5034051;28;20598;-63
2022/09/26 05:11:01;;;;;;;0.00;0.00;;;9.70;99.90;;;;;;5037027;28;20231;-64
2022/09/26 05:13:27;;;;;;;0.00;0.00;;;9.70;99.90;;;;;;5043034;28;20184;-64
2022/09/26 05:15:54;;;;;;;0.00;0.00;;;9.60;99.90;;;;;;5034106;28;20212;-64
2022/09/26 05:18:22;;;;;;;0.00;0.00;;;9.60;99.90;;;;;;5033733;28;20648;-63
2022/09/26 05:20:48;;;;;;;0.10;0.10;;;9.60;99.90;;;;;;5033976;28;20197;-63
2022/09/26 05:28:44;;;;;;;0.00;0.00;;;9.70;99.90;;;;;;5033590;28;20224;-64
2022/09/26 05:31:09;;;;;;;0.00;0.00;;;9.70;99.90;;;;;;5033669;28;20182;-63
2022/09/26 05:33:36;;;;;;;0.00;0.00;;;9.70;99.90;;;;;;5033637;28;20170;-64
2022/09/26 05:36:02;;;;;;;0.00;0.00;;;9.80;99.90;;;;;;5033758;28;20201;-64
2022/09/26 05:38:27;;;;;;;0.00;0.00;;;9.90;99.90;;;;;;5033492;28;20638;-64
2022/09/26 05:40:56;;;;;;;0.20;0.20;;;9.90;99.90;;;;;;5033443;28;20199;-64
2022/09/26 05:43:30;;;;;;;0.00;0.00;;;10.00;99.90;;;;;;5033445;28;20189;-64
2022/09/26 05:46:06;;;;;;;0.00;0.00;;;10.00;99.90;;;;;;5033530;28;20202;-64
2022/09/26 05:48:34;;;;;;;0.00;0.00;;;10.10;99.90;;;;;;5033423;28;20174;-64
2022/09/26 05:51:13;;;;;;;0.00;0.00;;;10.10;99.90;;;;;;5033295;28;20328;-64
2022/09/26 05:53:40;;;;;;;0.00;0.00;;;10.10;99.90;;;;;;5033130;28;20174;-64
2022/09/26 05:56:07;;;;;;;0.00;0.00;;;10.10;99.90;;;;;;5033330;28;20186;-64
2022/09/26 05:58:34;;;;;;;0.00;0.00;;;10.10;99.90;;;;;;5033291;28;20182;-63
2022/09/26 06:01:08;;;;;;;0.00;0.00;;;10.10;99.90;;;;;;5033248;28;20518;-64
2022/09/26 06:03:35;;;;;;;0.30;0.30;;;10.10;99.90;;;;;;5032890;28;20225;-64
2022/09/26 06:06:06;;;;;;;0.00;0.00;;;10.20;99.90;;;;;;5033009;28;20185;-64
2022/09/26 06:08:33;;;;;;;0.00;0.00;;;10.20;99.90;;;;;;5033124;28;20257;-64
2022/09/26 06:11:06;;;;;;;0.00;0.00;;;10.30;99.90;;;;;;5033085;28;20182;-64
2022/09/26 06:13:33;;;;;;;0.05;0.05;;;10.30;99.90;;;;;;5036427;28;20178;-64
2022/09/26 06:16:07;;;;;;;0.00;0.00;;;10.40;99.90;;;;;;5041520;28;20192;-64
2022/09/26 06:18:34;;;;;;;0.00;0.00;;;10.50;99.90;;;;;;5039844;28;20268;-64
2022/09/26 06:21:01;;;;;;;0.00;0.00;;;10.60;99.90;;;;;;5039794;28;20182;-63
2022/09/26 06:23:26;;;;;;;0.00;0.00;;;10.70;99.90;;;;;;5033342;28;20184;-63
2022/09/26 06:25:52;;;;;;;0.10;0.03;;;10.90;99.90;;;;;;5033262;28;20182;-64
2022/09/26 06:28:17;;;;;;;0.00;0.00;;;11.10;99.90;;;;;;5032712;28;20178;-64
2022/09/26 06:30:43;;;;;;;0.10;0.10;;;11.40;99.90;;;;;;5032596;28;20232;-64
2022/09/26 06:33:09;;;;;;;0.00;0.00;;;11.70;99.90;;;;;;5032598;28;20649;-63
2022/09/26 06:35:34;;;;;;;0.55;0.55;;;12.10;99.90;;;;;;5032484;28;20240;-64
2022/09/26 06:38:00;;;;;;;0.00;0.00;;;12.60;99.90;;;;;;5032370;28;20583;-64
2022/09/26 06:40:25;;;;;;;0.00;0.00;;;13.10;99.90;;;;;;5031553;28;20517;-64
2022/09/26 06:42:51;;;;;;;0.00;0.00;;;13.60;99.90;;;;;;5032489;28;20166;-64
2022/09/26 06:45:16;;;;;;;0.10;0.10;;;14.00;99.90;;;;;;5032101;28;20182;-64
2022/09/26 06:47:42;;;;;;;0.00;0.00;;;14.40;99.90;;;;;;5032539;28;20697;-64
2022/09/26 06:50:09;;;;;;;0.00;0.00;;;14.80;99.90;;;;;;5031949;28;20213;-64
2022/09/26 06:52:34;;;;;;;0.00;0.00;;;15.00;99.90;;;;;;5032225;28;20228;-66
2022/09/26 06:55:02;;;;;;;0.00;0.00;;;15.50;99.90;;;;;;5032376;28;20178;-65
2022/09/26 06:57:28;;;;;;;0.00;0.00;;;15.90;99.90;;;;;;5032201;28;20657;-65
2022/09/26 06:59:54;;;;;;;0.00;0.00;;;16.30;99.90;;;;;;5032292;28;20236;-65
2022/09/26 07:02:20;;;;;;;0.00;0.00;;;16.80;99.90;;;;;;5032019;28;20620;-65
2022/09/26 07:04:45;;;;;;;0.00;0.00;;;17.40;99.90;;;;;;5032205;28;20208;-65
2022/09/26 07:07:11;;;;;;;0.00;0.00;;;17.80;99.90;;;;;;5032205;28;20629;-65
2022/09/26 07:09:37;;;;;;;0.00;0.00;;;18.10;99.60;;;;;;5030872;28;20209;-65
2022/09/26 07:12:04;;;;;;;0.00;0.00;;;18.20;98.90;;;;;;5032121;28;20186;-65
2022/09/26 07:14:30;;;;;;;0.00;0.00;;;18.00;97.60;;;;;;5031834;28;20182;-65
2022/09/26 07:16:55;;;;;;;0.00;0.00;;;17.30;97.50;;;;;;5032102;28;20228;-65
2022/09/26 07:19:21;;;;;;;0.00;0.00;;;16.70;98.20;;;;;;5031822;28;20185;-64
2022/09/26 07:21:47;;;;;;;0.00;0.00;;;16.20;99.10;;;;;;5044627;28;20284;-65
2022/09/26 07:24:13;;;;;;;0.00;0.00;;;15.60;99.90;;;;;;5040969;28;20231;-64
2022/09/26 07:26:40;;;;;;;0.00;0.00;;;15.10;99.90;;;;;;5043940;28;20522;-64
2022/09/26 07:29:06;;;;;;;0.00;0.00;;;14.70;99.90;;;;;;5036562;28;20205;-65
2022/09/26 07:31:31;;;;;;;0.00;0.00;;;14.30;99.90;;;;;;5051676;28;20181;-65
2022/09/26 07:33:57;;;;;;;0.00;0.00;;;14.00;99.90;;;;;;5043921;28;20189;-65
2022/09/26 07:36:22;;;;;;;0.00;0.00;;;13.70;99.90;;;;;;5043677;28;20251;-64
2022/09/26 07:38:48;;;;;;;0.00;0.00;;;13.50;99.90;;;;;;5031991;28;20643;-64
2022/09/26 07:41:14;;;;;;;0.00;0.00;;;13.40;99.90;;;;;;5031574;28;20251;-65
2022/09/26 07:43:40;;;;;;;0.00;0.00;;;13.30;99.90;;;;;;5031737;28;20170;-64
2022/09/26 07:51:35;;;;;;;0.00;0.00;;;13.90;99.90;;;;;;5034222;28;20791;-64
2022/09/26 07:54:01;;;;;;;0.00;0.00;;;14.30;99.90;;;;;;5035636;28;20604;-64
2022/09/26 07:56:26;;;;;;;0.00;0.00;;;14.80;99.90;;;;;;5035595;28;20206;-64
2022/09/26 07:58:54;;;;;;;0.00;0.00;;;15.50;99.90;;;;;;5035685;28;20587;-64
2022/09/26 08:01:19;;;;;;;0.00;0.00;;;16.30;99.90;;;;;;5036497;28;20182;-64
2022/09/26 08:03:49;;;;;;;0.00;0.00;;;17.20;99.90;;;;;;5045961;28;20715;-64
2022/09/26 08:06:19;;;;;;;0.00;0.00;;;17.90;99.50;;;;;;5047818;28;20181;-65
2022/09/26 08:08:47;;;;;;;0.00;0.00;;;18.20;97.40;;;;;;5047792;28;20186;-64
2022/09/26 08:11:17;;;;;;;0.00;0.00;;;18.50;96.90;;;;;;5035269;28;20190;-63
2022/09/26 08:13:44;;;;;;;0.00;0.00;;;18.80;95.80;;;;;;5041196;28;20181;-63
2022/09/26 08:16:11;;;;;;;0.00;0.00;;;18.90;95.10;;;;;;5044258;28;20186;-63
2022/09/26 08:18:36;;;;;;;0.00;0.00;;;18.70;94.50;;;;;;5036082;28;20641;-63
2022/09/26 08:21:05;;;;;;;0.00;0.00;;;18.70;94.80;;;;;;5034943;28;20186;-63
2022/09/26 08:23:32;;;;;;;0.00;0.00;;;18.60;94.20;;;;;;5040902;28;20235;-64
2022/09/26 08:26:02;;;;;;;0.00;0.00;;;18.90;94.90;;;;;;5046978;28;20542;-64
2022/09/26 08:28:27;;;;;;;0.00;0.00;;;19.10;93.90;;;;;;5039752;28;20596;-64
2022/09/26 08:30:53;;;;;;;0.00;0.00;;;19.00;94.00;;;;;;5054871;28;20213;-64
2022/09/26 08:33:20;;;;;;;0.00;0.00;;;19.10;93.90;;;;;;5052989;28;20632;-64
2022/09/26 08:35:47;;;;;;;0.00;0.00;;;18.90;93.00;;;;;;5050017;28;20182;-64
2022/09/26 08:38:14;;;;;;;0.00;0.00;;;18.90;93.70;;;;;;5033547;28;20178;-63
2022/09/26 08:40:48;;;;;;;0.00;0.00;;;18.70;93.40;;;;;;5037892;28;20542;-64
2022/09/26 08:43:26;;;;;;;0.25;0.08;;;18.70;93.70;;;;;;5054768;28;20235;-64
2022/09/26 08:46:30;;;;;;;0.00;0.00;;;18.90;93.60;;;;;;5053056;28;20178;-64
2022/09/26 08:49:15;;;;;;;0.00;0.00;;;18.90;94.60;;;;;;5052492;28;20242;-64
2022/09/26 08:51:46;;;;;;;0.00;0.00;;;19.00;93.50;;;;;;5042469;28;20185;-65
2022/09/26 08:54:16;;;;;;;0.00;0.00;;;19.40;94.40;;;;;;5034894;28;20217;-64
2022/09/26 08:56:48;;;;;;;0.00;0.00;;;19.50;93.00;;;;;;5040038;28;20185;-64
2022/09/26 08:59:28;;;;;;;0.00;0.00;;;19.50;92.20;;;;;;5040075;28;20660;-64
2022/09/26 09:01:58;;;;;;;0.00;0.00;;;19.50;93.20;;;;;;5033936;28;20182;-64
2022/09/26 09:04:35;;;;;;;0.00;0.00;;;19.50;92.60;;;;;;5034729;28;20182;-65
2022/09/26 09:07:15;;;;;;;0.00;0.00;;;19.40;92.30;;;;;;5034797;28;20187;-64
2022/09/26 09:09:40;;;;;;;0.00;0.00;;;19.30;92.10;;;;;;5034330;28;20268;-64
2022/09/26 09:12:46;;;;;;;0.00;0.00;;;19.00;91.60;;;;;;5034130;28;20178;-64
2022/09/26 09:15:25;;;;;;;0.00;0.00;;;18.70;91.40;;;;;;5034074;28;20181;-63
2022/09/26 09:18:06;;;;;;;0.00;0.00;;;18.80;92.80;;;;;;5050217;28;20711;-64
2022/09/26 09:20:51;;;;;;;0.00;0.00;;;18.90;92.70;;;;;;5053762;28;20223;-64
2022/09/26 09:23:31;;;;;;;0.00;0.00;;;19.10;92.30;;;;;;5052240;28;20676;-64
2022/09/26 09:26:15;;;;;;;0.00;0.00;;;18.90;92.00;;;;;;5053941;28;20547;-64
2022/09/26 09:28:59;;;;;;;0.10;0.00;;;18.60;93.10;;;;;;5014162;28;20179;-64
2022/09/26 09:31:31;;;;;;;0.00;0.00;;;18.80;93.30;;;;;;5047546;28;20283;-64
2022/09/26 09:34:00;;;;;;;0.15;0.15;;;18.80;93.40;;;;;;5053653;28;20644;-64
2022/09/26 09:36:35;;;;;;;0.00;0.00;;;18.60;92.40;;;;;;5035571;28;20645;-64
2022/09/26 09:39:06;;;;;;;0.00;0.00;;;18.30;93.80;;;;;;5043882;28;20197;-64
2022/09/26 09:41:41;;;;;;;0.00;0.00;;;18.30;94.10;;;;;;5033411;28;20182;-64
2022/09/26 09:44:39;;;;;;;0.00;0.00;;;18.60;94.00;;;;;;5043323;28;20227;-63
2022/09/26 09:47:14;;;;;;;0.00;0.00;;;18.80;93.80;;;;;;5040597;28;20202;-64
2022/09/26 09:49:45;;;;;;;0.00;0.00;;;18.90;94.20;;;;;;5053057;28;20216;-64
2022/09/26 09:52:32;;;;;;;0.00;0.00;;;19.10;93.10;;;;;;5046771;28;20181;-64
2022/09/26 09:55:20;;;;;;;0.00;0.00;;;19.30;93.60;;;;;;5033438;28;20209;-63
2022/09/26 09:58:05;;;;;;;0.28;0.10;;;19.10;92.40;;;;;;5034396;28;20174;-64
2022/09/26 10:00:40;;;;;;;0.00;0.00;;;18.70;93.20;;;;;;5033224;28;20186;-64
2022/09/26 10:03:17;;;;;;;0.00;0.00;;;18.50;93.10;;;;;;5045868;28;20223;-63
2022/09/26 10:05:49;;;;;;;0.20;0.00;;;18.10;93.30;;;;;;5052992;28;20174;-64
2022/09/26 10:08:30;;;;;;;0.05;0.05;;;17.80;93.90;;;;;;5046388;28;20254;-63
2022/09/26 10:11:18;;;;;;;0.00;0.00;;;17.40;94.70;;;;;;5051226;28;20673;-64
2022/09/26 10:13:44;;;;;;;0.10;0.10;;;17.10;95.10;;;;;;5032797;28;20539;-64
2022/09/26 10:16:14;;;;;;;0.00;0.00;;;17.10;95.70;;;;;;5034323;28;20232;-63
2022/09/26 10:19:06;;;;;;;0.08;0.08;;;17.10;96.00;;;;;;5037933;28;20193;-64
2022/09/26 10:21:39;;;;;;;0.32;0.32;;;17.20;95.90;;;;;;5036870;28;20209;-65
2022/09/26 10:24:21;;;;;;;1.10;0.75;;;17.20;94.90;;;;;;5052691;28;20181;-64
2022/09/26 10:26:48;;;;;;;0.20;0.20;;;17.10;93.50;;;;;;5046802;28;20590;-64
2022/09/26 10:29:40;;;;;;;0.00;0.00;;;16.90;93.30;;;;;;5050636;28;20746;-63
2022/09/26 10:32:08;;;;;;;0.00;0.00;;;16.70;93.70;;;;;;5044696;28;20231;-64
2022/09/26 10:34:36;;;;;;;0.00;0.00;;;16.90;94.80;;;;;;5038340;28;20255;-63
2022/09/26 10:37:21;;;;;;;0.00;0.00;;;17.20;94.20;;;;;;5052269;28;20273;-63
2022/09/26 10:42:38;;;;;;;0.00;0.00;;;17.60;94.00;;;;;;5039216;28;20667;-64
2022/09/26 10:45:25;;;;;;;0.00;0.00;;;17.70;93.60;;;;;;5038044;28;20663;-64
2022/09/26 10:47:54;;;;;;;0.00;0.00;;;17.90;93.00;;;;;;5047976;28;20178;-64
2022/09/26 10:50:25;;;;;;;0.00;0.00;;;18.00;92.50;;;;;;5050625;28;20308;-66
2022/09/26 10:53:01;;;;;;;0.00;0.00;;;18.30;92.70;;;;;;5052263;28;20231;-64
2022/09/26 10:55:55;;;;;;;0.00;0.00;;;18.40;91.10;;;;;;5031421;28;20244;-64
2022/09/26 10:58:23;;;;;;;0.00;0.00;;;18.20;90.80;;;;;;5032141;28;20174;-65
2022/09/26 11:00:50;;;;;;;0.00;0.00;;;18.00;90.80;;;;;;5032275;28;20269;-64
2022/09/26 11:03:20;;;;;;;0.00;0.00;;;17.70;91.00;;;;;;5031886;28;20238;-65
2022/09/26 11:05:56;;;;;;;0.00;0.00;;;17.60;91.50;;;;;;5032099;28;20174;-65
2022/09/26 11:08:29;;;;;;;0.00;0.00;;;17.40;91.90;;;;;;5032077;28;20181;-65
2022/09/26 11:10:57;;;;;;;0.00;0.00;;;17.10;92.30;;;;;;5032354;28;20226;-63
2022/09/26 11:13:28;;;;;;;0.00;0.00;;;16.60;97.00;;;;;;5031995;28;20264;-63
2022/09/26 11:16:02;;;;;;;0.00;0.00;;;16.20;98.30;;;;;;5032170;28;20565;-63
2022/09/26 11:19:06;;;;;;;0.03;0.00;;;15.70;98.90;;;;;;5031943;28;20641;-63
2022/09/26 11:21:41;;;;;;;0.00;0.00;;;15.50;99.90;;;;;;5031770;28;20213;-63
2022/09/26 11:24:44;;;;;;;0.00;0.00;;;15.30;99.90;;;;;;5031860;28;20169;-64
2022/09/26 11:27:22;;;;;;;0.00;0.00;;;15.40;99.90;;;;;;5038060;28;20189;-64
2022/09/26 11:30:07;;;;;;;0.00;0.00;;;15.50;99.90;;;;;;5038586;28;20225;-63
2022/09/26 11:32:39;;;;;;;0.00;0.00;;;15.70;99.90;;;;;;5038549;28;20182;-63
2022/09/26 11:35:12;;;;;;;0.00;0.00;;;15.80;99.90;;;;;;5038513;28;20185;-63
2022/09/26 11:38:13;;;;;;;0.00;0.00;;;15.80;99.90;;;;;;5045397;28;20177;-63
2022/09/26 11:41:06;;;;;;;0.10;0.10;;;15.70;99.90;;;;;;5041034;28;20194;-63
2022/09/26 11:44:00;;;;;;;0.00;0.00;;;15.70;99.90;;;;;;5057840;28;20531;-63
2022/09/26 11:46:45;;;;;;;0.00;0.00;;;15.50;99.90;;;;;;5054949;28;20192;-63
2022/09/26 11:49:31;;;;;;;0.10;0.10;;;15.40;99.90;;;;;;5057778;28;20258;-63
2022/09/26 11:52:31;;;;;;;0.00;0.00;;;15.30;99.90;;;;;;5058450;28;20169;-63
2022/09/26 11:55:36;;;;;;;0.10;0.10;;;15.30;99.90;;;;;;5058468;28;20187;-64
2022/09/26 11:58:10;;;;;;;0.15;0.15;;;15.40;99.90;;;;;;5057102;28;20231;-64
2022/09/26 12:01:00;;;;;;;0.10;0.10;;;15.50;99.90;;;;;;5058208;28;20180;-64
2022/09/26 12:03:46;;;;;;;0.10;0.10;;;15.60;99.90;;;;;;5057937;28;20217;-64
2022/09/26 12:06:38;;;;;;;0.00;0.00;;;15.70;99.90;;;;;;5057561;28;20185;-64
2022/09/26 12:09:33;;;;;;;0.00;0.00;;;15.70;99.90;;;;;;5046559;28;20185;-64
2022/09/26 12:12:24;;;;;;;0.08;0.00;;;15.50;99.90;;;;;;5058103;28;20182;-64
2022/09/26 12:15:19;;;;;;;0.00;0.00;;;15.50;99.90;;;;;;5057862;28;20205;-64
2022/09/26 12:18:12;;;;;;;0.00;0.00;;;15.60;99.90;;;;;;5058201;28;20231;-64
2022/09/26 12:20:59;;;;;;;0.00;0.00;;;15.60;99.90;;;;;;5058075;28;20196;-64
2022/09/26 12:23:33;;;;;;;0.00;0.00;;;15.60;99.90;;;;;;5057994;28;20173;-64
2022/09/26 12:26:23;;;;;;;0.00;0.00;;;15.40;99.90;;;;;;5058192;28;20256;-64
2022/09/26 12:28:54;;;;;;;0.00;0.00;;;15.20;99.90;;;;;;5058013;28;20188;-64
2022/09/26 12:31:37;;;;;;;0.10;0.00;;;14.70;99.90;;;;;;5057892;28;20203;-64
2022/09/26 12:34:24;;;;;;;0.00;0.00;;;14.20;99.90;;;;;;5057920;28;20177;-64
2022/09/26 12:37:11;;;;;;;0.00;0.00;;;13.80;99.90;;;;;;5055974;28;20260;-64
2022/09/26 12:39:40;;;;;;;0.00;0.00;;;13.90;99.90;;;;;;5053244;28;20652;-64
2022/09/26 12:42:25;;;;;;;0.00;0.00;;;14.10;99.90;;;;;;5034721;28;20180;-64
2022/09/26 12:45:08;;;;;;;0.00;0.00;;;14.50;99.90;;;;;;5034627;28;20182;-64
2022/09/26 12:47:45;;;;;;;0.00;0.00;;;14.70;99.90;;;;;;5034537;28;20181;-64
2022/09/26 12:50:41;;;;;;;0.00;0.00;;;14.60;99.90;;;;;;5034335;28;20229;-63
2022/09/26 12:53:12;;;;;;;0.00;0.00;;;14.50;99.90;;;;;;5034614;28;20228;-63
2022/09/26 12:55:56;;;;;;;0.00;0.00;;;14.50;99.90;;;;;;5034486;28;20181;-63
2022/09/26 12:58:56;;;;;;;0.00;0.00;;;14.80;99.90;;;;;;5034378;28;20634;-64
2022/09/26 13:01:43;;;;;;;0.00;0.00;;;15.00;99.90;;;;;;5034209;28;20229;-64
2022/09/26 13:04:36;;;;;;;0.00;0.00;;;15.40;99.90;;;;;;5034063;28;20650;-63
2022/09/26 13:07:17;;;;;;;0.00;0.00;;;15.60;99.90;;;;;;5034355;28;20186;-64
2022/09/26 13:09:51;;;;;;;0.00;0.00;;;15.70;99.90;;;;;;5034222;28;20263;-63
2022/09/26 13:12:33;;;;;;;0.00;0.00;;;15.60;99.90;;;;;;5034143;28;20186;-63
2022/09/26 13:15:23;;;;;;;0.00;0.00;;;15.50;99.90;;;;;;5034192;28;20221;-63
2022/09/26 13:17:57;;;;;;;0.00;0.00;;;15.50;99.90;;;;;;5034277;28;20178;-64
2022/09/26 13:20:40;;;;;;;0.00;0.00;;;15.70;99.90;;;;;;5033859;28;20178;-63
2022/09/26 13:23:11;;;;;;;0.00;0.00;;;15.90;99.90;;;;;;5033992;28;20261;-63
2022/09/26 13:25:44;;;;;;;0.10;0.10;;;16.00;99.90;;;;;;5033796;28;20174;-64
2022/09/26 13:28:13;;;;;;;0.00;0.00;;;16.10;99.90;;;;;;5033778;28;20630;-64
2022/09/26 13:30:44;;;;;;;0.00;0.00;;;16.00;99.90;;;;;;5033691;28;20217;-64
2022/09/26 13:33:30;;;;;;;0.00;0.00;;;16.00;99.90;;;;;;5032360;28;20236;-64